sensor_id;sensor_type;location;lat;lon;timestamp;temperature;humidity
30379;DHT22;17168;49.164;9.060;2022-12-18T00:02:17;-1.50;64.00
30379;DHT22;17168;49.164;9.060;2022-12-18T00:04:49;-1.70;63.40
30379;DHT22;17168;49.164;9.060;2022-12-18T00:07:20;-2.10;63.10
30379;DHT22;17168;49.164;9.060;2022-12-18T00:09:52;-2.40;63.00
30379;DHT22;17168;49.164;9.060;2022-12-18T00:12:23;-2.70;63.10
30379;DHT22;17168;49.164;9.060;2022-12-18T00:14:56;-3.00;63.40
30379;DHT22;17168;49.164;9.060;2022-12-18T00:17:28;-3.30;63.80
30379;DHT22;17168;49.164;9.060;2022-12-18T00:20:00;-3.60;64.30
30379;DHT22;17168;49.164;9.060;2022-12-18T00:22:31;-3.90;64.70
30379;DHT22;17168;49.164;9.060;2022-12-18T00:25:03;-4.10;65.20
30379;DHT22;17168;49.164;9.060;2022-12-18T00:27:35;-4.30;65.70
30379;DHT22;17168;49.164;9.060;2022-12-18T00:30:08;-4.50;66.20
30379;DHT22;17168;49.164;9.060;2022-12-18T00:32:40;-4.80;66.70
30379;DHT22;17168;49.164;9.060;2022-12-18T00:35:12;-4.90;67.10
30379;DHT22;17168;49.164;9.060;2022-12-18T00:37:43;-5.00;67.50
30379;DHT22;17168;49.164;9.060;2022-12-18T00:40:15;-5.20;67.80
30379;DHT22;17168;49.164;9.060;2022-12-18T00:42:47;-5.30;68.10
30379;DHT22;17168;49.164;9.060;2022-12-18T00:45:31;-5.40;68.30
30379;DHT22;17168;49.164;9.060;2022-12-18T00:48:03;-5.50;68.50
30379;DHT22;17168;49.164;9.060;2022-12-18T00:50:35;-5.60;68.70
30379;DHT22;17168;49.164;9.060;2022-12-18T00:53:07;-5.70;68.70
30379;DHT22;17168;49.164;9.060;2022-12-18T00:55:38;-5.70;69.10
30379;DHT22;17168;49.164;9.060;2022-12-18T00:58:10;-5.70;69.30
30379;DHT22;17168;49.164;9.060;2022-12-18T01:00:44;-5.80;69.40
30379;DHT22;17168;49.164;9.060;2022-12-18T01:03:15;-5.90;69.50
30379;DHT22;17168;49.164;9.060;2022-12-18T01:05:47;-5.90;69.70
30379;DHT22;17168;49.164;9.060;2022-12-18T01:08:19;-6.00;69.80
30379;DHT22;17168;49.164;9.060;2022-12-18T01:10:50;-6.00;70.00
30379;DHT22;17168;49.164;9.060;2022-12-18T01:13:22;-6.10;70.20
30379;DHT22;17168;49.164;9.060;2022-12-18T01:15:55;-6.10;70.40
30379;DHT22;17168;49.164;9.060;2022-12-18T01:18:27;-6.10;70.70
30379;DHT22;17168;49.164;9.060;2022-12-18T01:20:58;-6.20;70.80
30379;DHT22;17168;49.164;9.060;2022-12-18T01:23:30;-6.20;71.00
30379;DHT22;17168;49.164;9.060;2022-12-18T01:26:05;-6.20;71.40
30379;DHT22;17168;49.164;9.060;2022-12-18T01:28:37;-6.30;71.70
30379;DHT22;17168;49.164;9.060;2022-12-18T01:31:16;-6.30;71.90
30379;DHT22;17168;49.164;9.060;2022-12-18T01:33:48;-6.30;71.90
30379;DHT22;17168;49.164;9.060;2022-12-18T01:36:21;-6.30;71.80
30379;DHT22;17168;49.164;9.060;2022-12-18T01:38:53;-6.30;71.80
30379;DHT22;17168;49.164;9.060;2022-12-18T01:41:26;-6.30;71.90
30379;DHT22;17168;49.164;9.060;2022-12-18T01:47:10;-6.40;72.00
30379;DHT22;17168;49.164;9.060;2022-12-18T01:49:44;-6.50;72.40
30379;DHT22;17168;49.164;9.060;2022-12-18T01:52:16;-6.40;72.70
30379;DHT22;17168;49.164;9.060;2022-12-18T01:54:48;-6.50;72.70
30379;DHT22;17168;49.164;9.060;2022-12-18T01:57:21;-6.50;72.80
30379;DHT22;17168;49.164;9.060;2022-12-18T01:59:54;-6.50;72.90
30379;DHT22;17168;49.164;9.060;2022-12-18T02:02:29;-6.50;72.90
30379;DHT22;17168;49.164;9.060;2022-12-18T02:05:02;-6.50;72.90
30379;DHT22;17168;49.164;9.060;2022-12-18T02:07:37;-6.40;73.00
30379;DHT22;17168;49.164;9.060;2022-12-18T02:10:13;-6.40;72.90
30379;DHT22;17168;49.164;9.060;2022-12-18T02:12:48;-6.50;72.90
30379;DHT22;17168;49.164;9.060;2022-12-18T02:15:24;-6.40;72.90
30379;DHT22;17168;49.164;9.060;2022-12-18T02:18:01;-6.50;73.00
30379;DHT22;17168;49.164;9.060;2022-12-18T02:20:35;-6.50;73.10
30379;DHT22;17168;49.164;9.060;2022-12-18T02:23:10;-6.50;73.20
30379;DHT22;17168;49.164;9.060;2022-12-18T02:25:53;-6.50;73.20
30379;DHT22;17168;49.164;9.060;2022-12-18T02:28:30;-6.50;73.20
30379;DHT22;17168;49.164;9.060;2022-12-18T02:31:02;-6.40;73.20
30379;DHT22;17168;49.164;9.060;2022-12-18T02:33:36;-6.40;73.30
30379;DHT22;17168;49.164;9.060;2022-12-18T02:36:09;-6.50;73.40
30379;DHT22;17168;49.164;9.060;2022-12-18T02:38:42;-6.50;73.50
30379;DHT22;17168;49.164;9.060;2022-12-18T02:41:15;-6.40;73.50
30379;DHT22;17168;49.164;9.060;2022-12-18T02:43:52;-6.40;73.50
30379;DHT22;17168;49.164;9.060;2022-12-18T02:46:25;-6.40;73.60
30379;DHT22;17168;49.164;9.060;2022-12-18T02:49:01;-6.40;73.70
30379;DHT22;17168;49.164;9.060;2022-12-18T02:51:37;-6.40;73.70
30379;DHT22;17168;49.164;9.060;2022-12-18T02:54:10;-6.40;73.70
30379;DHT22;17168;49.164;9.060;2022-12-18T02:56:48;-6.40;73.70
30379;DHT22;17168;49.164;9.060;2022-12-18T02:59:23;-6.40;73.60
30379;DHT22;17168;49.164;9.060;2022-12-18T03:01:58;-6.40;73.60
30379;DHT22;17168;49.164;9.060;2022-12-18T03:04:36;-6.40;73.60
30379;DHT22;17168;49.164;9.060;2022-12-18T03:07:11;-6.40;73.70
30379;DHT22;17168;49.164;9.060;2022-12-18T03:09:47;-6.40;73.60
30379;DHT22;17168;49.164;9.060;2022-12-18T03:12:22;-6.40;73.70
30379;DHT22;17168;49.164;9.060;2022-12-18T03:14:57;-6.40;73.80
30379;DHT22;17168;49.164;9.060;2022-12-18T03:17:30;-6.40;73.90
30379;DHT22;17168;49.164;9.060;2022-12-18T03:20:03;-6.50;74.00
30379;DHT22;17168;49.164;9.060;2022-12-18T03:22:36;-6.50;74.20
30379;DHT22;17168;49.164;9.060;2022-12-18T03:25:10;-6.50;74.10
30379;DHT22;17168;49.164;9.060;2022-12-18T03:27:44;-6.50;74.30
30379;DHT22;17168;49.164;9.060;2022-12-18T03:30:18;-6.60;74.30
30379;DHT22;17168;49.164;9.060;2022-12-18T03:32:52;-6.60;74.40
30379;DHT22;17168;49.164;9.060;2022-12-18T03:35:31;-6.60;74.30
30379;DHT22;17168;49.164;9.060;2022-12-18T03:38:04;-6.60;74.20
30379;DHT22;17168;49.164;9.060;2022-12-18T03:40:39;-6.60;74.20
30379;DHT22;17168;49.164;9.060;2022-12-18T03:43:16;-6.50;74.20
30379;DHT22;17168;49.164;9.060;2022-12-18T03:45:51;-6.60;74.10
30379;DHT22;17168;49.164;9.060;2022-12-18T03:48:26;-6.60;74.60
30379;DHT22;17168;49.164;9.060;2022-12-18T03:51:00;-6.60;74.10
30379;DHT22;17168;49.164;9.060;2022-12-18T03:53:35;-6.60;74.10
30379;DHT22;17168;49.164;9.060;2022-12-18T03:56:09;-6.60;74.20
30379;DHT22;17168;49.164;9.060;2022-12-18T03:58:42;-6.60;74.20
30379;DHT22;17168;49.164;9.060;2022-12-18T04:01:15;-6.60;74.10
30379;DHT22;17168;49.164;9.060;2022-12-18T04:03:48;-6.60;74.10
30379;DHT22;17168;49.164;9.060;2022-12-18T04:06:20;-6.60;74.00
30379;DHT22;17168;49.164;9.060;2022-12-18T04:08:52;-6.60;73.90
30379;DHT22;17168;49.164;9.060;2022-12-18T04:11:24;-6.60;74.10
30379;DHT22;17168;49.164;9.060;2022-12-18T04:13:57;-6.60;74.10
30379;DHT22;17168;49.164;9.060;2022-12-18T04:16:29;-6.60;74.20
30379;DHT22;17168;49.164;9.060;2022-12-18T04:19:01;-6.60;74.20
30379;DHT22;17168;49.164;9.060;2022-12-18T04:21:32;-6.60;74.20
30379;DHT22;17168;49.164;9.060;2022-12-18T04:24:04;-6.60;74.20
30379;DHT22;17168;49.164;9.060;2022-12-18T04:26:36;-6.60;74.20
30379;DHT22;17168;49.164;9.060;2022-12-18T04:29:09;-6.60;74.20
30379;DHT22;17168;49.164;9.060;2022-12-18T04:31:41;-6.60;74.20
30379;DHT22;17168;49.164;9.060;2022-12-18T04:34:12;-6.60;74.20
30379;DHT22;17168;49.164;9.060;2022-12-18T04:36:44;-6.60;74.20
30379;DHT22;17168;49.164;9.060;2022-12-18T04:39:16;-6.60;74.20
30379;DHT22;17168;49.164;9.060;2022-12-18T04:41:47;-6.60;74.10
30379;DHT22;17168;49.164;9.060;2022-12-18T04:44:20;-6.60;74.20
30379;DHT22;17168;49.164;9.060;2022-12-18T04:46:52;-6.60;74.20
30379;DHT22;17168;49.164;9.060;2022-12-18T04:49:24;-6.60;74.10
30379;DHT22;17168;49.164;9.060;2022-12-18T04:51:57;-6.60;74.00
30379;DHT22;17168;49.164;9.060;2022-12-18T04:54:28;-6.70;74.00
30379;DHT22;17168;49.164;9.060;2022-12-18T04:57:00;-6.70;74.00
30379;DHT22;17168;49.164;9.060;2022-12-18T04:59:33;-6.70;74.00
30379;DHT22;17168;49.164;9.060;2022-12-18T05:02:04;-6.70;74.60
30379;DHT22;17168;49.164;9.060;2022-12-18T05:04:36;-6.70;74.20
30379;DHT22;17168;49.164;9.060;2022-12-18T05:07:08;-6.80;74.10
30379;DHT22;17168;49.164;9.060;2022-12-18T05:09:39;-6.80;74.20
30379;DHT22;17168;49.164;9.060;2022-12-18T05:12:12;-6.80;74.70
30379;DHT22;17168;49.164;9.060;2022-12-18T05:14:45;-6.80;74.20
30379;DHT22;17168;49.164;9.060;2022-12-18T05:17:16;-6.80;74.30
30379;DHT22;17168;49.164;9.060;2022-12-18T05:19:48;-6.80;74.20
30379;DHT22;17168;49.164;9.060;2022-12-18T05:22:20;-6.80;74.20
30379;DHT22;17168;49.164;9.060;2022-12-18T05:24:51;-6.80;74.30
30379;DHT22;17168;49.164;9.060;2022-12-18T05:27:23;-6.80;74.30
30379;DHT22;17168;49.164;9.060;2022-12-18T05:29:56;-6.80;74.40
30379;DHT22;17168;49.164;9.060;2022-12-18T05:32:27;-6.80;74.40
30379;DHT22;17168;49.164;9.060;2022-12-18T05:34:59;-6.80;74.40
30379;DHT22;17168;49.164;9.060;2022-12-18T05:37:31;-6.80;74.30
30379;DHT22;17168;49.164;9.060;2022-12-18T05:40:03;-6.80;74.40
30379;DHT22;17168;49.164;9.060;2022-12-18T05:42:35;-6.80;74.50
30379;DHT22;17168;49.164;9.060;2022-12-18T05:45:08;-6.80;74.50
30379;DHT22;17168;49.164;9.060;2022-12-18T05:47:40;-6.80;74.60
30379;DHT22;17168;49.164;9.060;2022-12-18T05:50:11;-6.80;74.60
30379;DHT22;17168;49.164;9.060;2022-12-18T05:52:43;-6.80;74.60
30379;DHT22;17168;49.164;9.060;2022-12-18T05:55:15;-6.80;74.60
30379;DHT22;17168;49.164;9.060;2022-12-18T05:57:46;-6.70;74.70
30379;DHT22;17168;49.164;9.060;2022-12-18T06:00:19;-6.80;74.60
30379;DHT22;17168;49.164;9.060;2022-12-18T06:02:51;-6.80;74.60
30379;DHT22;17168;49.164;9.060;2022-12-18T06:05:23;-6.70;74.60
30379;DHT22;17168;49.164;9.060;2022-12-18T06:07:54;-6.80;74.40
30379;DHT22;17168;49.164;9.060;2022-12-18T06:10:26;-6.80;74.50
30379;DHT22;17168;49.164;9.060;2022-12-18T06:12:58;-6.80;74.60
30379;DHT22;17168;49.164;9.060;2022-12-18T06:15:31;-6.80;74.70
30379;DHT22;17168;49.164;9.060;2022-12-18T06:18:03;-6.80;74.70
30379;DHT22;17168;49.164;9.060;2022-12-18T06:20:34;-6.80;74.70
30379;DHT22;17168;49.164;9.060;2022-12-18T06:23:08;-6.80;74.60
30379;DHT22;17168;49.164;9.060;2022-12-18T06:25:40;-6.80;74.60
30379;DHT22;17168;49.164;9.060;2022-12-18T06:28:12;-6.80;74.60
30379;DHT22;17168;49.164;9.060;2022-12-18T06:30:45;-6.80;74.60
30379;DHT22;17168;49.164;9.060;2022-12-18T06:33:17;-6.80;74.60
30379;DHT22;17168;49.164;9.060;2022-12-18T06:35:48;-6.80;74.60
30379;DHT22;17168;49.164;9.060;2022-12-18T06:38:20;-6.80;74.50
30379;DHT22;17168;49.164;9.060;2022-12-18T06:40:51;-6.80;74.50
30379;DHT22;17168;49.164;9.060;2022-12-18T06:43:23;-6.80;74.50
30379;DHT22;17168;49.164;9.060;2022-12-18T06:45:59;-6.90;74.40
30379;DHT22;17168;49.164;9.060;2022-12-18T06:48:31;-6.90;74.50
30379;DHT22;17168;49.164;9.060;2022-12-18T06:51:03;-6.90;74.60
30379;DHT22;17168;49.164;9.060;2022-12-18T06:53:35;-6.90;74.70
30379;DHT22;17168;49.164;9.060;2022-12-18T06:56:07;-6.90;74.80
30379;DHT22;17168;49.164;9.060;2022-12-18T06:58:41;-6.90;74.80
30379;DHT22;17168;49.164;9.060;2022-12-18T07:01:14;-6.90;74.90
30379;DHT22;17168;49.164;9.060;2022-12-18T07:03:46;-6.90;75.10
30379;DHT22;17168;49.164;9.060;2022-12-18T07:06:19;-6.90;75.30
30379;DHT22;17168;49.164;9.060;2022-12-18T07:08:51;-6.80;75.50
30379;DHT22;17168;49.164;9.060;2022-12-18T07:11:23;-6.80;75.70
30379;DHT22;17168;49.164;9.060;2022-12-18T07:13:55;-6.80;75.80
30379;DHT22;17168;49.164;9.060;2022-12-18T07:16:28;-6.80;75.90
30379;DHT22;17168;49.164;9.060;2022-12-18T07:19:00;-6.80;76.10
30379;DHT22;17168;49.164;9.060;2022-12-18T07:24:04;-6.70;75.80
30379;DHT22;17168;49.164;9.060;2022-12-18T07:26:36;-6.70;76.40
30379;DHT22;17168;49.164;9.060;2022-12-18T07:29:07;-6.70;76.40
30379;DHT22;17168;49.164;9.060;2022-12-18T07:31:40;-6.70;76.40
30379;DHT22;17168;49.164;9.060;2022-12-18T07:34:12;-6.60;76.50
30379;DHT22;17168;49.164;9.060;2022-12-18T07:36:44;-6.60;76.50
30379;DHT22;17168;49.164;9.060;2022-12-18T07:39:16;-6.60;76.40
30379;DHT22;17168;49.164;9.060;2022-12-18T07:41:47;-6.60;76.50
30379;DHT22;17168;49.164;9.060;2022-12-18T07:44:39;-6.60;76.50
30379;DHT22;17168;49.164;9.060;2022-12-18T07:47:12;-6.60;76.40
30379;DHT22;17168;49.164;9.060;2022-12-18T07:49:44;-6.60;76.40
30379;DHT22;17168;49.164;9.060;2022-12-18T07:52:15;-6.50;76.50
30379;DHT22;17168;49.164;9.060;2022-12-18T07:54:53;-6.60;76.30
30379;DHT22;17168;49.164;9.060;2022-12-18T07:57:24;-6.50;76.60
30379;DHT22;17168;49.164;9.060;2022-12-18T08:00:16;-6.50;76.70
30379;DHT22;17168;49.164;9.060;2022-12-18T08:02:49;-6.50;76.70
30379;DHT22;17168;49.164;9.060;2022-12-18T08:05:21;-6.50;76.80
30379;DHT22;17168;49.164;9.060;2022-12-18T08:07:53;-6.40;77.00
30379;DHT22;17168;49.164;9.060;2022-12-18T08:10:24;-6.40;77.10
30379;DHT22;17168;49.164;9.060;2022-12-18T08:12:56;-6.40;77.10
30379;DHT22;17168;49.164;9.060;2022-12-18T08:15:35;-6.30;77.20
30379;DHT22;17168;49.164;9.060;2022-12-18T08:18:08;-6.30;77.30
30379;DHT22;17168;49.164;9.060;2022-12-18T08:20:44;-6.30;77.40
30379;DHT22;17168;49.164;9.060;2022-12-18T08:23:16;-6.20;77.60
30379;DHT22;17168;49.164;9.060;2022-12-18T08:25:48;-6.20;77.60
30379;DHT22;17168;49.164;9.060;2022-12-18T08:28:19;-6.20;77.80
30379;DHT22;17168;49.164;9.060;2022-12-18T08:30:51;-6.10;77.80
30379;DHT22;17168;49.164;9.060;2022-12-18T08:33:25;-6.10;77.90
30379;DHT22;17168;49.164;9.060;2022-12-18T08:35:58;-6.00;78.00
30379;DHT22;17168;49.164;9.060;2022-12-18T08:38:29;-6.00;78.00
30379;DHT22;17168;49.164;9.060;2022-12-18T08:41:01;-6.00;78.10
30379;DHT22;17168;49.164;9.060;2022-12-18T08:43:34;-5.90;78.20
30379;DHT22;17168;49.164;9.060;2022-12-18T08:46:24;-5.90;78.20
30379;DHT22;17168;49.164;9.060;2022-12-18T08:48:58;-5.80;78.30
30379;DHT22;17168;49.164;9.060;2022-12-18T08:51:29;-5.80;78.40
30379;DHT22;17168;49.164;9.060;2022-12-18T08:54:01;-5.70;78.40
30379;DHT22;17168;49.164;9.060;2022-12-18T08:56:34;-5.70;78.90
30379;DHT22;17168;49.164;9.060;2022-12-18T08:59:06;-5.70;78.50
30379;DHT22;17168;49.164;9.060;2022-12-18T09:01:38;-5.70;78.60
30379;DHT22;17168;49.164;9.060;2022-12-18T09:04:11;-5.60;78.90
30379;DHT22;17168;49.164;9.060;2022-12-18T09:06:43;-5.60;79.10
30379;DHT22;17168;49.164;9.060;2022-12-18T09:09:14;-5.50;79.30
30379;DHT22;17168;49.164;9.060;2022-12-18T09:11:46;-5.40;79.50
30379;DHT22;17168;49.164;9.060;2022-12-18T09:14:18;-5.40;79.70
30379;DHT22;17168;49.164;9.060;2022-12-18T09:16:49;-5.30;79.70
30379;DHT22;17168;49.164;9.060;2022-12-18T09:19:22;-5.20;79.90
30379;DHT22;17168;49.164;9.060;2022-12-18T09:21:54;-5.20;80.00
30379;DHT22;17168;49.164;9.060;2022-12-18T09:24:25;-5.10;80.10
30379;DHT22;17168;49.164;9.060;2022-12-18T09:26:57;-5.00;80.30
30379;DHT22;17168;49.164;9.060;2022-12-18T09:29:29;-5.00;80.50
30379;DHT22;17168;49.164;9.060;2022-12-18T09:32:01;-4.90;80.70
30379;DHT22;17168;49.164;9.060;2022-12-18T09:34:34;-4.80;80.90
30379;DHT22;17168;49.164;9.060;2022-12-18T09:37:05;-4.80;81.10
30379;DHT22;17168;49.164;9.060;2022-12-18T09:39:37;-4.70;81.20
30379;DHT22;17168;49.164;9.060;2022-12-18T09:42:09;-4.60;81.40
30379;DHT22;17168;49.164;9.060;2022-12-18T09:44:44;-4.50;81.50
30379;DHT22;17168;49.164;9.060;2022-12-18T09:47:18;-4.50;81.60
30379;DHT22;17168;49.164;9.060;2022-12-18T09:49:53;-4.40;81.80
30379;DHT22;17168;49.164;9.060;2022-12-18T09:52:26;-4.40;81.90
30379;DHT22;17168;49.164;9.060;2022-12-18T09:55:00;-4.30;82.10
30379;DHT22;17168;49.164;9.060;2022-12-18T09:57:33;-4.20;82.20
30379;DHT22;17168;49.164;9.060;2022-12-18T10:00:15;-4.10;82.40
30379;DHT22;17168;49.164;9.060;2022-12-18T10:02:48;-4.10;82.50
30379;DHT22;17168;49.164;9.060;2022-12-18T10:05:27;-4.00;82.70
30379;DHT22;17168;49.164;9.060;2022-12-18T10:08:04;-3.90;82.80
30379;DHT22;17168;49.164;9.060;2022-12-18T10:10:38;-3.80;82.90
30379;DHT22;17168;49.164;9.060;2022-12-18T10:13:14;-3.80;83.00
30379;DHT22;17168;49.164;9.060;2022-12-18T10:15:50;-3.70;83.20
30379;DHT22;17168;49.164;9.060;2022-12-18T10:18:28;-3.70;83.20
30379;DHT22;17168;49.164;9.060;2022-12-18T10:21:07;-3.60;83.40
30379;DHT22;17168;49.164;9.060;2022-12-18T10:23:43;-3.50;83.50
30379;DHT22;17168;49.164;9.060;2022-12-18T10:26:19;-3.50;83.60
30379;DHT22;17168;49.164;9.060;2022-12-18T10:28:52;-3.40;83.80
30379;DHT22;17168;49.164;9.060;2022-12-18T10:31:24;-3.30;83.90
30379;DHT22;17168;49.164;9.060;2022-12-18T10:33:56;-3.20;84.00
30379;DHT22;17168;49.164;9.060;2022-12-18T10:36:29;-3.10;84.10
30379;DHT22;17168;49.164;9.060;2022-12-18T10:39:13;-3.00;84.30
30379;DHT22;17168;49.164;9.060;2022-12-18T10:41:45;-3.00;84.40
30379;DHT22;17168;49.164;9.060;2022-12-18T10:44:18;-2.90;84.50
30379;DHT22;17168;49.164;9.060;2022-12-18T10:46:50;-2.80;84.70
30379;DHT22;17168;49.164;9.060;2022-12-18T10:49:23;-2.70;84.90
30379;DHT22;17168;49.164;9.060;2022-12-18T10:52:05;-2.60;85.10
30379;DHT22;17168;49.164;9.060;2022-12-18T10:54:37;-2.50;85.30
30379;DHT22;17168;49.164;9.060;2022-12-18T10:57:16;-2.40;85.50
30379;DHT22;17168;49.164;9.060;2022-12-18T10:59:52;-2.30;85.60
30379;DHT22;17168;49.164;9.060;2022-12-18T11:04:56;-2.10;85.50
30379;DHT22;17168;49.164;9.060;2022-12-18T11:07:34;-2.00;86.10
30379;DHT22;17168;49.164;9.060;2022-12-18T11:10:18;-1.90;86.20
30379;DHT22;17168;49.164;9.060;2022-12-18T11:12:50;-1.60;91.50
30379;DHT22;17168;49.164;9.060;2022-12-18T11:15:23;-1.70;86.30
30379;DHT22;17168;49.164;9.060;2022-12-18T11:17:57;-1.60;86.50
30379;DHT22;17168;49.164;9.060;2022-12-18T11:20:30;-1.40;86.40
30379;DHT22;17168;49.164;9.060;2022-12-18T11:23:04;-1.40;86.90
30379;DHT22;17168;49.164;9.060;2022-12-18T11:25:37;-1.20;87.10
30379;DHT22;17168;49.164;9.060;2022-12-18T11:28:25;-1.10;87.50
30379;DHT22;17168;49.164;9.060;2022-12-18T11:33:44;-0.80;88.10
30379;DHT22;17168;49.164;9.060;2022-12-18T11:36:38;-0.50;88.40
30379;DHT22;17168;49.164;9.060;2022-12-18T11:39:15;-0.30;89.10
30379;DHT22;17168;49.164;9.060;2022-12-18T11:41:49;-0.10;89.40
30379;DHT22;17168;49.164;9.060;2022-12-18T11:44:44;0.20;89.50
30379;DHT22;17168;49.164;9.060;2022-12-18T11:47:23;0.50;89.60
30379;DHT22;17168;49.164;9.060;2022-12-18T11:49:59;0.70;89.80
30379;DHT22;17168;49.164;9.060;2022-12-18T11:52:33;1.40;90.10
30379;DHT22;17168;49.164;9.060;2022-12-18T11:55:11;1.60;90.10
30379;DHT22;17168;49.164;9.060;2022-12-18T11:57:46;1.80;90.30
30379;DHT22;17168;49.164;9.060;2022-12-18T12:00:18;2.20;90.30
30379;DHT22;17168;49.164;9.060;2022-12-18T12:03:15;2.50;90.30
30379;DHT22;17168;49.164;9.060;2022-12-18T12:05:57;2.90;90.30
30379;DHT22;17168;49.164;9.060;2022-12-18T12:08:35;3.30;90.20
30379;DHT22;17168;49.164;9.060;2022-12-18T12:11:19;3.60;90.20
30379;DHT22;17168;49.164;9.060;2022-12-18T12:14:02;3.80;89.70
30379;DHT22;17168;49.164;9.060;2022-12-18T12:16:43;4.00;89.20
30379;DHT22;17168;49.164;9.060;2022-12-18T12:19:22;4.20;88.70
30379;DHT22;17168;49.164;9.060;2022-12-18T12:21:58;4.40;87.90
30379;DHT22;17168;49.164;9.060;2022-12-18T12:24:35;4.50;87.00
30379;DHT22;17168;49.164;9.060;2022-12-18T12:27:10;4.60;86.30
30379;DHT22;17168;49.164;9.060;2022-12-18T12:29:47;4.70;85.40
30379;DHT22;17168;49.164;9.060;2022-12-18T12:32:22;4.90;85.00
30379;DHT22;17168;49.164;9.060;2022-12-18T12:35:03;4.90;84.30
30379;DHT22;17168;49.164;9.060;2022-12-18T12:37:45;5.00;83.80
30379;DHT22;17168;49.164;9.060;2022-12-18T12:40:21;5.10;83.40
30379;DHT22;17168;49.164;9.060;2022-12-18T12:43:20;5.20;84.80
30379;DHT22;17168;49.164;9.060;2022-12-18T12:45:53;5.20;82.30
30379;DHT22;17168;49.164;9.060;2022-12-18T12:48:31;5.20;81.70
30379;DHT22;17168;49.164;9.060;2022-12-18T12:51:06;5.10;81.50
30379;DHT22;17168;49.164;9.060;2022-12-18T12:53:41;5.10;81.40
30379;DHT22;17168;49.164;9.060;2022-12-18T12:56:14;5.00;81.60
30379;DHT22;17168;49.164;9.060;2022-12-18T12:58:54;5.00;80.80
30379;DHT22;17168;49.164;9.060;2022-12-18T13:01:28;4.90;81.10
30379;DHT22;17168;49.164;9.060;2022-12-18T13:04:08;4.80;81.60
30379;DHT22;17168;49.164;9.060;2022-12-18T13:06:44;4.80;81.40
30379;DHT22;17168;49.164;9.060;2022-12-18T13:09:17;4.90;83.70
30379;DHT22;17168;49.164;9.060;2022-12-18T13:11:50;4.90;83.70
30379;DHT22;17168;49.164;9.060;2022-12-18T13:14:42;4.80;86.50
30379;DHT22;17168;49.164;9.060;2022-12-18T13:17:14;4.80;87.20
30379;DHT22;17168;49.164;9.060;2022-12-18T13:19:48;4.70;81.50
30379;DHT22;17168;49.164;9.060;2022-12-18T13:22:21;4.60;81.40
30379;DHT22;17168;49.164;9.060;2022-12-18T13:24:53;4.60;81.40
30379;DHT22;17168;49.164;9.060;2022-12-18T13:27:45;4.50;82.20
30379;DHT22;17168;49.164;9.060;2022-12-18T13:36:08;4.30;82.50
30379;DHT22;17168;49.164;9.060;2022-12-18T13:38:41;4.10;82.30
30379;DHT22;17168;49.164;9.060;2022-12-18T13:41:23;4.00;81.40
30379;DHT22;17168;49.164;9.060;2022-12-18T13:43:56;3.70;78.70
30379;DHT22;17168;49.164;9.060;2022-12-18T13:46:43;3.60;77.90
30379;DHT22;17168;49.164;9.060;2022-12-18T13:49:19;3.70;88.40
30379;DHT22;17168;49.164;9.060;2022-12-18T13:51:54;3.40;79.40
30379;DHT22;17168;49.164;9.060;2022-12-18T13:54:28;3.30;78.20
30379;DHT22;17168;49.164;9.060;2022-12-18T13:57:01;3.20;77.80
30379;DHT22;17168;49.164;9.060;2022-12-18T13:59:34;3.10;77.70
30379;DHT22;17168;49.164;9.060;2022-12-18T14:02:11;3.00;77.60
30379;DHT22;17168;49.164;9.060;2022-12-18T14:04:45;3.10;80.20
30379;DHT22;17168;49.164;9.060;2022-12-18T14:07:19;3.00;77.70
30379;DHT22;17168;49.164;9.060;2022-12-18T14:09:53;2.90;77.60
30379;DHT22;17168;49.164;9.060;2022-12-18T14:12:47;2.80;77.50
30379;DHT22;17168;49.164;9.060;2022-12-18T14:15:34;2.70;77.50
30379;DHT22;17168;49.164;9.060;2022-12-18T14:18:13;2.60;77.50
30379;DHT22;17168;49.164;9.060;2022-12-18T14:20:47;2.70;80.90
30379;DHT22;17168;49.164;9.060;2022-12-18T14:23:29;2.50;78.00
30379;DHT22;17168;49.164;9.060;2022-12-18T14:26:01;2.50;77.60
30379;DHT22;17168;49.164;9.060;2022-12-18T14:28:42;2.40;77.50
30379;DHT22;17168;49.164;9.060;2022-12-18T14:31:17;2.30;77.50
30379;DHT22;17168;49.164;9.060;2022-12-18T14:33:50;2.20;77.50
30379;DHT22;17168;49.164;9.060;2022-12-18T14:36:23;2.20;77.60
30379;DHT22;17168;49.164;9.060;2022-12-18T14:38:56;2.10;77.50
30379;DHT22;17168;49.164;9.060;2022-12-18T14:41:28;2.10;77.50
30379;DHT22;17168;49.164;9.060;2022-12-18T14:44:04;2.00;77.50
30379;DHT22;17168;49.164;9.060;2022-12-18T14:46:37;1.90;77.50
30379;DHT22;17168;49.164;9.060;2022-12-18T14:49:17;1.90;77.60
30379;DHT22;17168;49.164;9.060;2022-12-18T14:51:51;1.80;77.60
30379;DHT22;17168;49.164;9.060;2022-12-18T14:54:24;1.80;77.60
30379;DHT22;17168;49.164;9.060;2022-12-18T14:56:57;1.70;77.60
30379;DHT22;17168;49.164;9.060;2022-12-18T14:59:31;1.60;77.60
30379;DHT22;17168;49.164;9.060;2022-12-18T15:02:10;1.60;77.60
30379;DHT22;17168;49.164;9.060;2022-12-18T15:04:46;1.50;77.60
30379;DHT22;17168;49.164;9.060;2022-12-18T15:07:19;1.50;77.70
30379;DHT22;17168;49.164;9.060;2022-12-18T15:10:08;1.40;77.80
30379;DHT22;17168;49.164;9.060;2022-12-18T15:12:42;1.40;77.30
30379;DHT22;17168;49.164;9.060;2022-12-18T15:18:19;1.30;77.70
30379;DHT22;17168;49.164;9.060;2022-12-18T15:20:52;1.20;77.60
30379;DHT22;17168;49.164;9.060;2022-12-18T15:23:25;1.10;77.60
30379;DHT22;17168;49.164;9.060;2022-12-18T15:25:59;1.00;77.70
30379;DHT22;17168;49.164;9.060;2022-12-18T15:28:33;1.10;83.20
30379;DHT22;17168;49.164;9.060;2022-12-18T15:31:17;0.90;77.50
30379;DHT22;17168;49.164;9.060;2022-12-18T15:36:43;0.80;77.80
30379;DHT22;17168;49.164;9.060;2022-12-18T15:39:15;0.80;77.80
30379;DHT22;17168;49.164;9.060;2022-12-18T15:41:48;0.70;77.80
30379;DHT22;17168;49.164;9.060;2022-12-18T15:44:39;0.70;77.80
30379;DHT22;17168;49.164;9.060;2022-12-18T15:47:11;0.60;77.80
30379;DHT22;17168;49.164;9.060;2022-12-18T15:49:43;0.60;80.60
30379;DHT22;17168;49.164;9.060;2022-12-18T15:54:57;0.50;77.40
30379;DHT22;17168;49.164;9.060;2022-12-18T15:57:48;0.40;77.80
30379;DHT22;17168;49.164;9.060;2022-12-18T16:00:20;0.40;77.80
30379;DHT22;17168;49.164;9.060;2022-12-18T16:02:52;0.30;77.90
30379;DHT22;17168;49.164;9.060;2022-12-18T16:07:56;0.00;77.50
30379;DHT22;17168;49.164;9.060;2022-12-18T16:10:28;0.20;78.10
30379;DHT22;17168;49.164;9.060;2022-12-18T16:13:01;0.10;78.20
30379;DHT22;17168;49.164;9.060;2022-12-18T16:15:32;0.10;78.20
30379;DHT22;17168;49.164;9.060;2022-12-18T16:18:04;0.10;78.30
30379;DHT22;17168;49.164;9.060;2022-12-18T16:20:36;0.10;78.40
30379;DHT22;17168;49.164;9.060;2022-12-18T16:23:09;0.00;78.40
30379;DHT22;17168;49.164;9.060;2022-12-18T16:25:41;0.00;78.40
30379;DHT22;17168;49.164;9.060;2022-12-18T16:28:14;0.00;78.40
30379;DHT22;17168;49.164;9.060;2022-12-18T16:30:46;0.00;79.00
30379;DHT22;17168;49.164;9.060;2022-12-18T16:33:17;0.00;78.60
30379;DHT22;17168;49.164;9.060;2022-12-18T16:35:51;-0.10;78.70
30379;DHT22;17168;49.164;9.060;2022-12-18T16:38:22;-0.10;78.70
30379;DHT22;17168;49.164;9.060;2022-12-18T16:40:54;-0.10;80.30
30379;DHT22;17168;49.164;9.060;2022-12-18T16:43:46;0.00;82.30
30379;DHT22;17168;49.164;9.060;2022-12-18T16:46:25;-0.20;79.10
30379;DHT22;17168;49.164;9.060;2022-12-18T16:48:57;-0.20;78.60